Terminal Aerodrome Forecast
Issued by NWS Tampa Bay Area, FL

Home | Current Version | Previous Version | Text Only | Print | Product List | Glossary On
Versions: 1 2 3 4 5 6 7 8 9 10 11 12 13
578
FTUS42 KTBW 231728
TAFFMY
TAF
KFMY 231728Z 2318/2418 29008KT P6SM SCT025 BKN040
      TEMPO 2318/2320 BKN025
     FM240000 33006KT P6SM SCT030
     FM240800 36005KT 6SM BR SCT005 BKN025
     FM241400 03007KT P6SM SCT250=

USA.gov is the U.S. government's official web portal to all federal, state and local government web resources and services.